sensor_id;sensor_type;location;lat;lon;timestamp;P1;durP1;ratioP1;P2;durP2;ratioP2
60819;SDS011;46641;48.904;9.126;2023-03-16T00:02:00;8.00;;;7.20;;
60819;SDS011;46641;48.904;9.126;2023-03-16T00:06:51;8.07;;;7.27;;
60819;SDS011;46641;48.904;9.126;2023-03-16T00:11:41;8.32;;;6.97;;
60819;SDS011;46641;48.904;9.126;2023-03-16T00:16:31;7.78;;;6.95;;
60819;SDS011;46641;48.904;9.126;2023-03-16T00:21:21;7.97;;;7.17;;
60819;SDS011;46641;48.904;9.126;2023-03-16T00:26:12;6.93;;;6.23;;
60819;SDS011;46641;48.904;9.126;2023-03-16T00:31:04;7.90;;;7.10;;
60819;SDS011;46641;48.904;9.126;2023-03-16T00:35:55;7.33;;;6.63;;
60819;SDS011;46641;48.904;9.126;2023-03-16T00:40:51;6.80;;;6.20;;
60819;SDS011;46641;48.904;9.126;2023-03-16T00:45:42;7.10;;;6.37;;
60819;SDS011;46641;48.904;9.126;2023-03-16T00:50:33;7.43;;;6.57;;
60819;SDS011;46641;48.904;9.126;2023-03-16T00:55:23;7.32;;;6.50;;
60819;SDS011;46641;48.904;9.126;2023-03-16T01:00:14;7.57;;;6.87;;
60819;SDS011;46641;48.904;9.126;2023-03-16T01:05:06;8.63;;;6.67;;
60819;SDS011;46641;48.904;9.126;2023-03-16T01:09:58;6.97;;;6.27;;
60819;SDS011;46641;48.904;9.126;2023-03-16T01:14:48;8.55;;;7.68;;
60819;SDS011;46641;48.904;9.126;2023-03-16T01:19:38;7.70;;;6.90;;
60819;SDS011;46641;48.904;9.126;2023-03-16T01:24:30;10.27;;;7.23;;
60819;SDS011;46641;48.904;9.126;2023-03-16T01:29:21;8.63;;;7.23;;
60819;SDS011;46641;48.904;9.126;2023-03-16T01:34:11;8.27;;;7.53;;
60819;SDS011;46641;48.904;9.126;2023-03-16T01:39:05;8.23;;;7.47;;
60819;SDS011;46641;48.904;9.126;2023-03-16T01:43:56;7.43;;;6.70;;
60819;SDS011;46641;48.904;9.126;2023-03-16T01:53:44;7.33;;;6.57;;
60819;SDS011;46641;48.904;9.126;2023-03-16T01:58:35;7.97;;;7.10;;
60819;SDS011;46641;48.904;9.126;2023-03-16T02:03:27;10.17;;;8.40;;
60819;SDS011;46641;48.904;9.126;2023-03-16T02:08:19;7.97;;;7.10;;
60819;SDS011;46641;48.904;9.126;2023-03-16T02:13:11;7.93;;;7.13;;
60819;SDS011;46641;48.904;9.126;2023-03-16T02:18:02;7.83;;;6.73;;
60819;SDS011;46641;48.904;9.126;2023-03-16T02:22:54;11.40;;;9.30;;
60819;SDS011;46641;48.904;9.126;2023-03-16T02:27:47;9.20;;;8.20;;
60819;SDS011;46641;48.904;9.126;2023-03-16T02:32:47;10.30;;;8.50;;
60819;SDS011;46641;48.904;9.126;2023-03-16T02:37:40;9.27;;;8.40;;
60819;SDS011;46641;48.904;9.126;2023-03-16T02:42:30;8.07;;;7.27;;
60819;SDS011;46641;48.904;9.126;2023-03-16T02:47:31;8.00;;;7.20;;
60819;SDS011;46641;48.904;9.126;2023-03-16T02:52:24;8.43;;;7.43;;
60819;SDS011;46641;48.904;9.126;2023-03-16T02:57:15;9.43;;;7.60;;
60819;SDS011;46641;48.904;9.126;2023-03-16T03:02:05;8.77;;;7.87;;
60819;SDS011;46641;48.904;9.126;2023-03-16T03:06:55;9.73;;;8.07;;
60819;SDS011;46641;48.904;9.126;2023-03-16T03:11:52;8.50;;;7.60;;
60819;SDS011;46641;48.904;9.126;2023-03-16T03:16:43;10.15;;;7.97;;
60819;SDS011;46641;48.904;9.126;2023-03-16T03:21:35;8.63;;;7.57;;
60819;SDS011;46641;48.904;9.126;2023-03-16T03:26:25;8.82;;;7.93;;
60819;SDS011;46641;48.904;9.126;2023-03-16T03:31:19;7.90;;;7.20;;
60819;SDS011;46641;48.904;9.126;2023-03-16T03:36:11;8.73;;;7.83;;
60819;SDS011;46641;48.904;9.126;2023-03-16T03:41:02;9.07;;;8.07;;
60819;SDS011;46641;48.904;9.126;2023-03-16T03:45:56;9.37;;;8.13;;
60819;SDS011;46641;48.904;9.126;2023-03-16T03:50:48;8.83;;;7.93;;
60819;SDS011;46641;48.904;9.126;2023-03-16T03:55:38;10.63;;;8.80;;
60819;SDS011;46641;48.904;9.126;2023-03-16T04:00:28;9.23;;;8.25;;
60819;SDS011;46641;48.904;9.126;2023-03-16T04:05:19;10.33;;;9.27;;
60819;SDS011;46641;48.904;9.126;2023-03-16T04:10:09;8.83;;;8.00;;
60819;SDS011;46641;48.904;9.126;2023-03-16T04:15:01;8.87;;;7.77;;
60819;SDS011;46641;48.904;9.126;2023-03-16T04:19:52;11.07;;;8.70;;
60819;SDS011;46641;48.904;9.126;2023-03-16T04:24:42;8.52;;;7.60;;
60819;SDS011;46641;48.904;9.126;2023-03-16T04:29:33;9.03;;;8.23;;
60819;SDS011;46641;48.904;9.126;2023-03-16T04:34:23;9.17;;;8.27;;
60819;SDS011;46641;48.904;9.126;2023-03-16T04:39:13;8.50;;;7.57;;
60819;SDS011;46641;48.904;9.126;2023-03-16T04:44:04;8.18;;;7.38;;
60819;SDS011;46641;48.904;9.126;2023-03-16T04:48:54;8.00;;;7.30;;
60819;SDS011;46641;48.904;9.126;2023-03-16T04:53:47;8.57;;;7.37;;
60819;SDS011;46641;48.904;9.126;2023-03-16T04:58:37;8.40;;;7.50;;
60819;SDS011;46641;48.904;9.126;2023-03-16T05:03:27;8.07;;;7.28;;
60819;SDS011;46641;48.904;9.126;2023-03-16T05:08:17;7.10;;;6.40;;
60819;SDS011;46641;48.904;9.126;2023-03-16T05:13:08;8.90;;;8.00;;
60819;SDS011;46641;48.904;9.126;2023-03-16T05:17:58;6.90;;;6.03;;
60819;SDS011;46641;48.904;9.126;2023-03-16T05:22:49;8.13;;;7.20;;
60819;SDS011;46641;48.904;9.126;2023-03-16T05:27:40;7.90;;;7.10;;
60819;SDS011;46641;48.904;9.126;2023-03-16T05:32:32;8.23;;;7.03;;
60819;SDS011;46641;48.904;9.126;2023-03-16T05:37:22;9.75;;;7.25;;
60819;SDS011;46641;48.904;9.126;2023-03-16T05:42:13;8.47;;;7.43;;
60819;SDS011;46641;48.904;9.126;2023-03-16T05:47:04;10.05;;;7.97;;
60819;SDS011;46641;48.904;9.126;2023-03-16T05:51:54;9.53;;;8.10;;
60819;SDS011;46641;48.904;9.126;2023-03-16T05:56:44;10.32;;;8.48;;
60819;SDS011;46641;48.904;9.126;2023-03-16T06:01:35;8.03;;;7.23;;
60819;SDS011;46641;48.904;9.126;2023-03-16T06:06:25;10.70;;;8.48;;
60819;SDS011;46641;48.904;9.126;2023-03-16T06:11:15;11.17;;;9.67;;
60819;SDS011;46641;48.904;9.126;2023-03-16T06:16:06;14.07;;;12.67;;
60819;SDS011;46641;48.904;9.126;2023-03-16T06:20:57;14.63;;;13.23;;
60819;SDS011;46641;48.904;9.126;2023-03-16T06:25:47;15.87;;;11.23;;
60819;SDS011;46641;48.904;9.126;2023-03-16T06:30:38;11.07;;;9.53;;
60819;SDS011;46641;48.904;9.126;2023-03-16T06:35:29;13.13;;;9.67;;
60819;SDS011;46641;48.904;9.126;2023-03-16T06:40:19;10.23;;;9.10;;
60819;SDS011;46641;48.904;9.126;2023-03-16T06:45:09;11.90;;;9.27;;
60819;SDS011;46641;48.904;9.126;2023-03-16T06:50:00;12.57;;;9.73;;
60819;SDS011;46641;48.904;9.126;2023-03-16T06:54:50;10.50;;;9.43;;
60819;SDS011;46641;48.904;9.126;2023-03-16T06:59:41;10.23;;;9.13;;
60819;SDS011;46641;48.904;9.126;2023-03-16T07:04:31;11.70;;;9.50;;
60819;SDS011;46641;48.904;9.126;2023-03-16T07:09:22;12.43;;;9.17;;
60819;SDS011;46641;48.904;9.126;2023-03-16T07:14:13;11.07;;;9.13;;
60819;SDS011;46641;48.904;9.126;2023-03-16T07:19:03;12.57;;;10.17;;
60819;SDS011;46641;48.904;9.126;2023-03-16T07:23:53;10.48;;;9.30;;
60819;SDS011;46641;48.904;9.126;2023-03-16T07:28:44;12.93;;;10.03;;
60819;SDS011;46641;48.904;9.126;2023-03-16T07:33:35;14.68;;;11.57;;
60819;SDS011;46641;48.904;9.126;2023-03-16T07:38:25;14.07;;;10.90;;
60819;SDS011;46641;48.904;9.126;2023-03-16T07:43:16;14.52;;;11.45;;
60819;SDS011;46641;48.904;9.126;2023-03-16T07:48:06;14.53;;;11.17;;
60819;SDS011;46641;48.904;9.126;2023-03-16T07:52:56;15.18;;;12.10;;
60819;SDS011;46641;48.904;9.126;2023-03-16T07:57:47;15.90;;;10.90;;
60819;SDS011;46641;48.904;9.126;2023-03-16T08:02:37;10.77;;;9.20;;
60819;SDS011;46641;48.904;9.126;2023-03-16T08:07:27;14.88;;;11.02;;
60819;SDS011;46641;48.904;9.126;2023-03-16T08:12:17;15.00;;;10.90;;
60819;SDS011;46641;48.904;9.126;2023-03-16T08:17:08;12.70;;;10.17;;
60819;SDS011;46641;48.904;9.126;2023-03-16T08:21:58;15.82;;;11.02;;
60819;SDS011;46641;48.904;9.126;2023-03-16T08:26:50;12.90;;;10.30;;
60819;SDS011;46641;48.904;9.126;2023-03-16T08:31:40;12.85;;;9.13;;
60819;SDS011;46641;48.904;9.126;2023-03-16T08:36:31;12.67;;;9.73;;
60819;SDS011;46641;48.904;9.126;2023-03-16T08:41:22;12.23;;;10.93;;
60819;SDS011;46641;48.904;9.126;2023-03-16T08:46:12;10.07;;;8.83;;
60819;SDS011;46641;48.904;9.126;2023-03-16T08:51:03;9.33;;;8.33;;
60819;SDS011;46641;48.904;9.126;2023-03-16T08:56:05;11.07;;;9.20;;
60819;SDS011;46641;48.904;9.126;2023-03-16T09:00:57;11.20;;;9.83;;
60819;SDS011;46641;48.904;9.126;2023-03-16T09:05:48;11.93;;;9.03;;
60819;SDS011;46641;48.904;9.126;2023-03-16T09:10:38;11.15;;;8.75;;
60819;SDS011;46641;48.904;9.126;2023-03-16T09:15:28;10.40;;;8.65;;
60819;SDS011;46641;48.904;9.126;2023-03-16T09:20:19;9.20;;;6.35;;
60819;SDS011;46641;48.904;9.126;2023-03-16T09:25:09;10.73;;;7.57;;
60819;SDS011;46641;48.904;9.126;2023-03-16T09:30:00;7.47;;;5.87;;
60819;SDS011;46641;48.904;9.126;2023-03-16T09:34:51;8.50;;;6.87;;
60819;SDS011;46641;48.904;9.126;2023-03-16T09:39:41;8.83;;;6.40;;
60819;SDS011;46641;48.904;9.126;2023-03-16T09:49:48;8.70;;;5.67;;
60819;SDS011;46641;48.904;9.126;2023-03-16T10:05:28;6.93;;;6.20;;
60819;SDS011;46641;48.904;9.126;2023-03-16T10:15:34;6.63;;;5.50;;
60819;SDS011;46641;48.904;9.126;2023-03-16T10:20:28;4.23;;;3.47;;
60819;SDS011;46641;48.904;9.126;2023-03-16T10:25:34;4.33;;;2.43;;
60819;SDS011;46641;48.904;9.126;2023-03-16T10:30:35;4.17;;;3.20;;
60819;SDS011;46641;48.904;9.126;2023-03-16T10:40:37;5.80;;;4.43;;
60819;SDS011;46641;48.904;9.126;2023-03-16T10:45:29;3.70;;;3.40;;
60819;SDS011;46641;48.904;9.126;2023-03-16T10:50:22;5.00;;;4.47;;
60819;SDS011;46641;48.904;9.126;2023-03-16T10:55:15;4.73;;;3.97;;
60819;SDS011;46641;48.904;9.126;2023-03-16T11:00:16;3.87;;;3.50;;
60819;SDS011;46641;48.904;9.126;2023-03-16T11:15:14;4.70;;;4.20;;
60819;SDS011;46641;48.904;9.126;2023-03-16T11:20:05;6.30;;;4.60;;
60819;SDS011;46641;48.904;9.126;2023-03-16T11:35:17;5.40;;;4.23;;
60819;SDS011;46641;48.904;9.126;2023-03-16T11:51:03;8.03;;;4.67;;
60819;SDS011;46641;48.904;9.126;2023-03-16T11:56:25;4.50;;;3.77;;
60819;SDS011;46641;48.904;9.126;2023-03-16T12:01:31;4.43;;;3.87;;
60819;SDS011;46641;48.904;9.126;2023-03-16T12:16:34;3.37;;;3.03;;
60819;SDS011;46641;48.904;9.126;2023-03-16T12:21:30;3.83;;;3.53;;
60819;SDS011;46641;48.904;9.126;2023-03-16T12:26:27;3.80;;;3.07;;
60819;SDS011;46641;48.904;9.126;2023-03-16T12:42:31;4.27;;;3.40;;
60819;SDS011;46641;48.904;9.126;2023-03-16T12:47:13;3.27;;;2.90;;
60819;SDS011;46641;48.904;9.126;2023-03-16T12:52:12;4.33;;;3.10;;
60819;SDS011;46641;48.904;9.126;2023-03-16T12:57:04;2.93;;;2.50;;
60819;SDS011;46641;48.904;9.126;2023-03-16T13:01:56;4.37;;;3.03;;
60819;SDS011;46641;48.904;9.126;2023-03-16T13:06:49;5.67;;;2.80;;
60819;SDS011;46641;48.904;9.126;2023-03-16T13:11:50;2.20;;;2.00;;
60819;SDS011;46641;48.904;9.126;2023-03-16T13:16:42;3.50;;;2.43;;
60819;SDS011;46641;48.904;9.126;2023-03-16T13:21:35;3.37;;;3.07;;
60819;SDS011;46641;48.904;9.126;2023-03-16T13:26:37;3.03;;;2.37;;
60819;SDS011;46641;48.904;9.126;2023-03-16T13:31:35;4.70;;;3.40;;
60819;SDS011;46641;48.904;9.126;2023-03-16T13:36:28;3.80;;;3.10;;
60819;SDS011;46641;48.904;9.126;2023-03-16T13:41:19;4.43;;;3.10;;
60819;SDS011;46641;48.904;9.126;2023-03-16T13:46:14;3.37;;;2.80;;
60819;SDS011;46641;48.904;9.126;2023-03-16T13:51:09;4.50;;;3.27;;
60819;SDS011;46641;48.904;9.126;2023-03-16T13:56:06;3.90;;;3.50;;
60819;SDS011;46641;48.904;9.126;2023-03-16T14:01:04;5.50;;;2.60;;
60819;SDS011;46641;48.904;9.126;2023-03-16T14:06:15;2.57;;;2.30;;
60819;SDS011;46641;48.904;9.126;2023-03-16T14:11:18;4.23;;;3.37;;
60819;SDS011;46641;48.904;9.126;2023-03-16T14:20:58;3.30;;;2.90;;
60819;SDS011;46641;48.904;9.126;2023-03-16T14:25:54;3.37;;;2.57;;
60819;SDS011;46641;48.904;9.126;2023-03-16T14:30:51;3.43;;;2.60;;
60819;SDS011;46641;48.904;9.126;2023-03-16T14:35:43;2.53;;;2.13;;
60819;SDS011;46641;48.904;9.126;2023-03-16T14:40:33;3.30;;;2.50;;
60819;SDS011;46641;48.904;9.126;2023-03-16T14:45:32;4.23;;;3.70;;
60819;SDS011;46641;48.904;9.126;2023-03-16T14:50:24;3.13;;;2.53;;
60819;SDS011;46641;48.904;9.126;2023-03-16T14:55:15;5.47;;;4.10;;
60819;SDS011;46641;48.904;9.126;2023-03-16T15:00:09;3.57;;;2.60;;
60819;SDS011;46641;48.904;9.126;2023-03-16T15:05:01;2.80;;;2.03;;
60819;SDS011;46641;48.904;9.126;2023-03-16T15:09:53;4.60;;;3.00;;
60819;SDS011;46641;48.904;9.126;2023-03-16T15:14:45;3.73;;;2.70;;
60819;SDS011;46641;48.904;9.126;2023-03-16T15:19:55;3.93;;;3.53;;
60819;SDS011;46641;48.904;9.126;2023-03-16T15:24:46;4.93;;;3.03;;
60819;SDS011;46641;48.904;9.126;2023-03-16T15:29:36;4.63;;;3.17;;
60819;SDS011;46641;48.904;9.126;2023-03-16T15:34:27;4.63;;;3.87;;
60819;SDS011;46641;48.904;9.126;2023-03-16T15:39:22;4.57;;;3.20;;
60819;SDS011;46641;48.904;9.126;2023-03-16T15:44:14;6.30;;;5.67;;
60819;SDS011;46641;48.904;9.126;2023-03-16T15:49:05;5.40;;;3.60;;
60819;SDS011;46641;48.904;9.126;2023-03-16T15:53:58;4.28;;;3.78;;
60819;SDS011;46641;48.904;9.126;2023-03-16T15:58:52;3.70;;;3.30;;
60819;SDS011;46641;48.904;9.126;2023-03-16T16:03:42;5.70;;;4.20;;
60819;SDS011;46641;48.904;9.126;2023-03-16T16:08:33;3.70;;;3.40;;
60819;SDS011;46641;48.904;9.126;2023-03-16T16:13:25;5.93;;;4.00;;
60819;SDS011;46641;48.904;9.126;2023-03-16T16:18:28;4.80;;;4.30;;
60819;SDS011;46641;48.904;9.126;2023-03-16T16:23:20;6.00;;;3.97;;
60819;SDS011;46641;48.904;9.126;2023-03-16T16:28:15;4.67;;;4.17;;
60819;SDS011;46641;48.904;9.126;2023-03-16T16:33:24;4.60;;;4.20;;
60819;SDS011;46641;48.904;9.126;2023-03-16T16:38:16;4.80;;;4.40;;
60819;SDS011;46641;48.904;9.126;2023-03-16T16:43:08;5.35;;;4.72;;
60819;SDS011;46641;48.904;9.126;2023-03-16T16:47:59;4.63;;;4.00;;
60819;SDS011;46641;48.904;9.126;2023-03-16T16:52:50;5.50;;;4.10;;
60819;SDS011;46641;48.904;9.126;2023-03-16T16:57:42;5.13;;;3.97;;
60819;SDS011;46641;48.904;9.126;2023-03-16T17:02:43;5.07;;;4.57;;
60819;SDS011;46641;48.904;9.126;2023-03-16T17:07:35;3.50;;;3.20;;
60819;SDS011;46641;48.904;9.126;2023-03-16T17:12:26;4.83;;;3.30;;
60819;SDS011;46641;48.904;9.126;2023-03-16T17:17:18;4.40;;;2.90;;
60819;SDS011;46641;48.904;9.126;2023-03-16T17:22:17;3.23;;;2.90;;
60819;SDS011;46641;48.904;9.126;2023-03-16T17:27:11;10.10;;;7.33;;
60819;SDS011;46641;48.904;9.126;2023-03-16T17:32:06;2.83;;;2.50;;
60819;SDS011;46641;48.904;9.126;2023-03-16T17:37:11;3.00;;;2.40;;
60819;SDS011;46641;48.904;9.126;2023-03-16T17:42:06;3.00;;;2.70;;
60819;SDS011;46641;48.904;9.126;2023-03-16T17:47:01;2.57;;;2.33;;
60819;SDS011;46641;48.904;9.126;2023-03-16T17:51:51;4.17;;;2.67;;
60819;SDS011;46641;48.904;9.126;2023-03-16T17:56:42;4.23;;;2.40;;
60819;SDS011;46641;48.904;9.126;2023-03-16T18:01:34;3.53;;;2.60;;
60819;SDS011;46641;48.904;9.126;2023-03-16T18:06:27;4.05;;;3.10;;
60819;SDS011;46641;48.904;9.126;2023-03-16T18:11:23;4.33;;;2.83;;
60819;SDS011;46641;48.904;9.126;2023-03-16T18:16:21;2.77;;;2.47;;
60819;SDS011;46641;48.904;9.126;2023-03-16T18:21:18;4.67;;;3.17;;
60819;SDS011;46641;48.904;9.126;2023-03-16T18:26:10;3.53;;;2.97;;
60819;SDS011;46641;48.904;9.126;2023-03-16T18:31:01;6.23;;;3.10;;
60819;SDS011;46641;48.904;9.126;2023-03-16T18:35:54;3.47;;;3.10;;
60819;SDS011;46641;48.904;9.126;2023-03-16T18:40:46;3.60;;;2.97;;
60819;SDS011;46641;48.904;9.126;2023-03-16T18:45:37;4.10;;;3.30;;
60819;SDS011;46641;48.904;9.126;2023-03-16T18:50:27;6.72;;;3.95;;
60819;SDS011;46641;48.904;9.126;2023-03-16T18:55:20;3.83;;;3.43;;
60819;SDS011;46641;48.904;9.126;2023-03-16T19:00:16;4.67;;;3.83;;
60819;SDS011;46641;48.904;9.126;2023-03-16T19:05:13;6.17;;;3.90;;
60819;SDS011;46641;48.904;9.126;2023-03-16T19:15:26;5.70;;;3.40;;
60819;SDS011;46641;48.904;9.126;2023-03-16T19:20:20;5.50;;;5.00;;
60819;SDS011;46641;48.904;9.126;2023-03-16T19:25:17;5.63;;;4.23;;
60819;SDS011;46641;48.904;9.126;2023-03-16T19:30:27;5.57;;;4.27;;
60819;SDS011;46641;48.904;9.126;2023-03-16T19:35:20;5.13;;;4.63;;
60819;SDS011;46641;48.904;9.126;2023-03-16T19:40:12;6.50;;;4.20;;
60819;SDS011;46641;48.904;9.126;2023-03-16T19:45:03;4.40;;;4.00;;
60819;SDS011;46641;48.904;9.126;2023-03-16T19:49:54;4.27;;;3.87;;
60819;SDS011;46641;48.904;9.126;2023-03-16T19:54:44;4.45;;;4.03;;
60819;SDS011;46641;48.904;9.126;2023-03-16T19:59:35;4.60;;;4.10;;
60819;SDS011;46641;48.904;9.126;2023-03-16T20:04:26;5.20;;;4.70;;
60819;SDS011;46641;48.904;9.126;2023-03-16T20:09:17;12.53;;;7.00;;
60819;SDS011;46641;48.904;9.126;2023-03-16T20:14:10;5.63;;;4.60;;
60819;SDS011;46641;48.904;9.126;2023-03-16T20:19:09;4.90;;;4.27;;
60819;SDS011;46641;48.904;9.126;2023-03-16T20:24:02;4.73;;;4.23;;
60819;SDS011;46641;48.904;9.126;2023-03-16T20:28:53;6.50;;;4.37;;
60819;SDS011;46641;48.904;9.126;2023-03-16T20:33:43;5.73;;;4.50;;
60819;SDS011;46641;48.904;9.126;2023-03-16T20:38:35;4.63;;;4.20;;
60819;SDS011;46641;48.904;9.126;2023-03-16T20:43:28;5.57;;;4.80;;
60819;SDS011;46641;48.904;9.126;2023-03-16T20:48:20;5.13;;;4.03;;
60819;SDS011;46641;48.904;9.126;2023-03-16T20:53:14;5.70;;;4.33;;
60819;SDS011;46641;48.904;9.126;2023-03-16T20:58:09;4.88;;;4.47;;
60819;SDS011;46641;48.904;9.126;2023-03-16T21:03:13;5.00;;;4.30;;
60819;SDS011;46641;48.904;9.126;2023-03-16T21:08:06;5.30;;;4.20;;
60819;SDS011;46641;48.904;9.126;2023-03-16T21:12:57;5.63;;;4.10;;
60819;SDS011;46641;48.904;9.126;2023-03-16T21:17:47;5.40;;;4.90;;
60819;SDS011;46641;48.904;9.126;2023-03-16T21:22:56;5.13;;;4.67;;
60819;SDS011;46641;48.904;9.126;2023-03-16T21:27:47;4.33;;;3.97;;
60819;SDS011;46641;48.904;9.126;2023-03-16T21:32:39;6.07;;;4.30;;
60819;SDS011;46641;48.904;9.126;2023-03-16T21:37:29;4.90;;;4.23;;
60819;SDS011;46641;48.904;9.126;2023-03-16T21:42:20;5.55;;;4.70;;
60819;SDS011;46641;48.904;9.126;2023-03-16T21:47:24;4.93;;;4.07;;
60819;SDS011;46641;48.904;9.126;2023-03-16T21:52:26;4.23;;;3.83;;
60819;SDS011;46641;48.904;9.126;2023-03-16T21:57:19;4.50;;;4.10;;
60819;SDS011;46641;48.904;9.126;2023-03-16T22:02:20;4.50;;;4.07;;
60819;SDS011;46641;48.904;9.126;2023-03-16T22:07:13;5.30;;;4.20;;
60819;SDS011;46641;48.904;9.126;2023-03-16T22:12:05;4.70;;;4.30;;
60819;SDS011;46641;48.904;9.126;2023-03-16T22:16:58;7.03;;;4.33;;
60819;SDS011;46641;48.904;9.126;2023-03-16T22:21:48;4.83;;;4.40;;
60819;SDS011;46641;48.904;9.126;2023-03-16T22:26:39;5.30;;;4.60;;
60819;SDS011;46641;48.904;9.126;2023-03-16T22:31:31;5.03;;;4.53;;
60819;SDS011;46641;48.904;9.126;2023-03-16T22:36:24;5.10;;;4.33;;
60819;SDS011;46641;48.904;9.126;2023-03-16T22:41:14;5.87;;;4.87;;
60819;SDS011;46641;48.904;9.126;2023-03-16T22:46:25;4.83;;;4.30;;
60819;SDS011;46641;48.904;9.126;2023-03-16T22:51:27;5.10;;;4.70;;
60819;SDS011;46641;48.904;9.126;2023-03-16T22:56:20;5.30;;;4.47;;
60819;SDS011;46641;48.904;9.126;2023-03-16T23:06:02;4.57;;;4.17;;
60819;SDS011;46641;48.904;9.126;2023-03-16T23:10:53;7.03;;;4.60;;
60819;SDS011;46641;48.904;9.126;2023-03-16T23:15:45;5.03;;;3.93;;
60819;SDS011;46641;48.904;9.126;2023-03-16T23:20:37;5.33;;;4.33;;
60819;SDS011;46641;48.904;9.126;2023-03-16T23:25:27;4.47;;;4.07;;
60819;SDS011;46641;48.904;9.126;2023-03-16T23:30:22;4.90;;;4.37;;
60819;SDS011;46641;48.904;9.126;2023-03-16T23:35:15;3.73;;;3.43;;
60819;SDS011;46641;48.904;9.126;2023-03-16T23:40:20;4.30;;;3.90;;
60819;SDS011;46641;48.904;9.126;2023-03-16T23:45:36;4.93;;;4.43;;
60819;SDS011;46641;48.904;9.126;2023-03-16T23:50:28;5.20;;;3.80;;
60819;SDS011;46641;48.904;9.126;2023-03-16T23:55:20;4.90;;;4.40;;
